createdAt,value
2023-04-21T00:02:40.160Z,50.99
2023-04-21T00:08:00.822Z,50.93
2023-04-21T00:13:21.254Z,51.23
2023-04-21T00:18:41.929Z,51.15
2023-04-21T00:24:02.725Z,51.29
2023-04-21T00:29:23.413Z,51.25
2023-04-21T00:34:44.027Z,51.28
2023-04-21T00:40:06.975Z,51.38
2023-04-21T00:45:27.417Z,51.28
2023-04-21T00:50:48.153Z,51.34
2023-04-21T00:56:09.184Z,51.49
2023-04-21T01:01:36.469Z,51.52
2023-04-21T01:06:58.674Z,51.56
2023-04-21T01:12:19.015Z,51.50
2023-04-21T01:17:40.182Z,51.42
2023-04-21T01:23:01.353Z,51.57
2023-04-21T01:28:24.209Z,51.56
2023-04-21T01:33:45.607Z,51.49
2023-04-21T01:39:06.412Z,51.50
2023-04-21T01:44:27.006Z,51.61
2023-04-21T01:49:47.732Z,51.49
2023-04-21T01:55:09.185Z,51.49
2023-04-21T02:00:29.723Z,51.43
2023-04-21T02:05:51.239Z,51.49
2023-04-21T02:11:11.954Z,51.35
2023-04-21T02:16:34.146Z,51.38
2023-04-21T02:21:54.800Z,51.24
2023-04-21T02:27:16.062Z,51.15
2023-04-21T02:32:36.884Z,50.91
2023-04-21T02:37:58.443Z,51.16
2023-04-21T02:43:19.217Z,51.07
2023-04-21T02:48:39.988Z,51.03
2023-04-21T02:54:00.679Z,50.92
2023-04-21T02:59:21.744Z,50.94
2023-04-21T03:04:42.333Z,50.92
2023-04-21T03:10:03.222Z,50.98
2023-04-21T03:15:24.129Z,50.87
2023-04-21T03:20:44.577Z,50.98
2023-04-21T03:26:09.088Z,50.90
2023-04-21T03:31:29.799Z,50.87
2023-04-21T03:36:50.870Z,50.69
2023-04-21T03:42:11.708Z,50.74
2023-04-21T03:47:32.314Z,50.63
2023-04-21T03:52:53.028Z,50.63
2023-04-21T03:58:14.314Z,50.67
2023-04-21T04:03:35.026Z,50.37
2023-04-21T04:08:56.104Z,50.39
2023-04-21T04:14:16.574Z,50.48
2023-04-21T04:19:37.433Z,50.43
2023-04-21T04:24:59.760Z,50.26
2023-04-21T04:30:21.342Z,50.09
2023-04-21T04:35:42.034Z,50.24
2023-04-21T04:41:03.575Z,49.98
2023-04-21T04:46:24.712Z,49.78
2023-04-21T04:51:45.512Z,49.75
2023-04-21T04:57:06.034Z,49.72
2023-04-21T05:02:26.924Z,49.67
2023-04-21T05:07:47.715Z,49.54
2023-04-21T05:13:08.705Z,49.50
2023-04-21T05:18:29.988Z,49.27
2023-04-21T05:23:50.854Z,49.40
2023-04-21T05:29:11.852Z,49.04
2023-04-21T05:34:32.657Z,48.79
2023-04-21T05:39:53.078Z,48.61
2023-04-21T05:45:14.097Z,48.85
2023-04-21T05:50:35.485Z,48.57
2023-04-21T05:55:56.071Z,48.34
2023-04-21T06:01:16.304Z,48.00
2023-04-21T06:06:37.074Z,47.66
2023-04-21T06:11:57.717Z,47.34
2023-04-21T06:17:18.946Z,46.98
2023-04-21T06:22:39.847Z,46.78
2023-04-21T06:28:00.479Z,46.49
2023-04-21T06:33:21.301Z,46.30
2023-04-21T06:38:43.219Z,46.03
2023-04-21T06:44:04.003Z,46.08
2023-04-21T06:49:24.592Z,46.06
2023-04-21T06:54:45.353Z,45.94
2023-04-21T07:00:06.986Z,45.48
2023-04-21T07:05:27.524Z,45.33
2023-04-21T07:10:48.213Z,45.17
2023-04-21T07:16:08.904Z,45.02
2023-04-21T07:21:30.947Z,44.91
2023-04-21T07:26:51.506Z,45.19
2023-04-21T07:32:11.809Z,44.57
2023-04-21T07:37:33.525Z,44.58
2023-04-21T07:42:53.956Z,44.24
2023-04-21T07:48:14.546Z,44.03
2023-04-21T07:53:34.906Z,43.93
2023-04-21T07:58:56.328Z,43.68
2023-04-21T08:04:17.443Z,43.24
2023-04-21T08:09:37.914Z,42.70
2023-04-21T08:14:58.804Z,42.28
2023-04-21T08:20:19.435Z,42.09
2023-04-21T08:25:41.398Z,42.08
2023-04-21T08:31:02.349Z,41.78
2023-04-21T08:36:29.442Z,41.16
2023-04-21T08:41:51.550Z,40.91
2023-04-21T08:47:14.490Z,40.31
2023-04-21T08:52:35.674Z,40.22
2023-04-21T08:57:56.709Z,39.65
2023-04-21T09:03:26.387Z,39.17
2023-04-21T09:08:56.551Z,38.52
2023-04-21T09:14:35.837Z,38.25
2023-04-21T09:19:56.472Z,37.78
2023-04-21T09:25:19.946Z,37.61
2023-04-21T09:30:42.491Z,37.29
2023-04-21T09:36:03.364Z,36.67
2023-04-21T09:41:25.095Z,36.34
2023-04-21T09:46:49.389Z,35.99
2023-04-21T09:52:19.018Z,35.52
2023-04-21T09:57:42.204Z,35.19
2023-04-21T10:03:05.455Z,35.00
2023-04-21T10:08:26.582Z,34.56
2023-04-21T10:13:47.635Z,34.41
2023-04-21T10:19:28.156Z,33.82
2023-04-21T10:24:48.660Z,33.19
2023-04-21T10:30:22.978Z,32.74
2023-04-21T10:36:01.259Z,32.41
2023-04-21T10:41:29.996Z,32.46
2023-04-21T10:46:52.583Z,30.95
2023-04-21T10:52:16.271Z,22.60
2023-04-21T10:57:38.493Z,15.42
2023-04-21T11:03:04.524Z,13.09
2023-04-21T11:08:25.455Z,11.16
2023-04-21T11:13:47.045Z,10.85
2023-04-21T11:19:07.505Z,10.11
2023-04-21T11:24:28.171Z,9.57
2023-04-21T11:29:50.765Z,8.70
2023-04-21T11:35:11.432Z,8.73
2023-04-21T11:40:47.882Z,7.87
2023-04-21T11:46:18.733Z,7.44
2023-04-21T11:51:43.488Z,7.53
2023-04-21T11:57:06.224Z,6.38
2023-04-21T12:02:29.273Z,5.09
2023-04-21T12:07:51.842Z,5.95
2023-04-21T12:13:12.453Z,6.40
2023-04-21T12:18:34.372Z,6.05
2023-04-21T12:23:57.320Z,11.68
2023-04-21T12:29:18.056Z,15.59
2023-04-21T12:34:38.937Z,10.80
2023-04-21T12:39:59.682Z,9.55
2023-04-21T12:45:21.406Z,14.59
2023-04-21T12:50:41.951Z,18.32
2023-04-21T12:56:05.158Z,17.29
2023-04-21T13:01:26.567Z,20.25
2023-04-21T13:06:47.366Z,21.76
2023-04-21T13:12:08.224Z,22.63
2023-04-21T13:17:28.873Z,22.81
2023-04-21T13:22:49.516Z,22.70
2023-04-21T13:28:09.868Z,23.26
2023-04-21T13:33:34.790Z,23.35
2023-04-21T13:38:56.213Z,22.89
2023-04-21T13:44:16.505Z,16.01
2023-04-21T13:49:37.122Z,12.05
2023-04-21T13:54:58.464Z,10.63
2023-04-21T14:00:19.434Z,11.97
2023-04-21T14:05:40.291Z,15.61
2023-04-21T14:11:00.920Z,16.74
2023-04-21T14:16:21.773Z,16.37
2023-04-21T14:21:42.494Z,15.63
2023-04-21T14:27:02.925Z,15.84
2023-04-21T14:32:23.853Z,15.54
2023-04-21T14:37:44.414Z,14.32
2023-04-21T14:43:05.139Z,15.20
2023-04-21T14:48:26.282Z,14.48
2023-04-21T14:53:47.027Z,15.16
2023-04-21T14:59:10.286Z,14.58
2023-04-21T15:04:30.957Z,14.06
2023-04-21T15:09:51.767Z,14.19
2023-04-21T15:15:12.438Z,13.72
2023-04-21T15:20:44.559Z,13.61
2023-04-21T15:26:06.034Z,13.94
2023-04-21T15:31:29.834Z,15.52
2023-04-21T15:36:50.487Z,18.68
2023-04-21T15:42:10.876Z,21.09
2023-04-21T15:47:31.967Z,22.14
2023-04-21T15:52:52.702Z,22.72
2023-04-21T15:58:13.587Z,23.96
2023-04-21T16:03:34.730Z,24.44
2023-04-21T16:08:55.687Z,25.47
2023-04-21T16:14:16.732Z,25.92
2023-04-21T16:19:41.808Z,26.28
2023-04-21T16:25:02.304Z,26.36
2023-04-21T16:30:23.335Z,26.87
2023-04-21T16:35:43.915Z,27.06
2023-04-21T16:41:04.687Z,27.58
2023-04-21T16:46:25.592Z,27.98
2023-04-21T16:51:46.199Z,28.58
2023-04-21T16:57:07.114Z,29.01
2023-04-21T17:02:27.742Z,29.46
2023-04-21T17:07:48.263Z,29.82
2023-04-21T17:13:08.896Z,30.27
2023-04-21T17:18:29.840Z,30.82
2023-04-21T17:23:50.486Z,31.13
2023-04-21T17:29:11.308Z,31.72
2023-04-21T17:34:31.761Z,32.15
2023-04-21T17:39:53.695Z,32.43
2023-04-21T17:45:14.863Z,32.96
2023-04-21T17:50:36.033Z,33.28
2023-04-21T17:55:56.956Z,33.78
2023-04-21T18:01:17.959Z,34.45
2023-04-21T18:06:38.443Z,34.85
2023-04-21T18:11:59.118Z,35.25
2023-04-21T18:17:20.056Z,35.79
2023-04-21T18:22:43.659Z,36.20
2023-04-21T18:28:04.641Z,36.58
2023-04-21T18:33:25.367Z,37.07
2023-04-21T18:38:46.580Z,37.49
2023-04-21T18:44:07.055Z,38.09
2023-04-21T18:49:27.591Z,38.51
2023-04-21T18:54:48.234Z,38.91
2023-04-21T19:00:09.952Z,39.00
2023-04-21T19:05:31.896Z,39.28
2023-04-21T19:10:52.700Z,39.69
2023-04-21T19:16:14.579Z,39.72
2023-04-21T19:21:35.427Z,39.82
2023-04-21T19:26:56.852Z,40.35
2023-04-21T19:32:17.399Z,40.35
2023-04-21T19:37:38.477Z,40.57
2023-04-21T19:42:58.893Z,40.84
2023-04-21T19:48:19.223Z,41.20
2023-04-21T19:53:39.615Z,41.53
2023-04-21T19:59:00.672Z,41.55
2023-04-21T20:04:21.270Z,41.72
2023-04-21T20:09:41.776Z,41.89
2023-04-21T20:15:02.910Z,42.16
2023-04-21T20:20:23.384Z,42.23
2023-04-21T20:25:43.947Z,42.37
2023-04-21T20:31:04.500Z,42.48
2023-04-21T20:36:27.720Z,43.41
2023-04-21T20:41:57.945Z,44.12
2023-04-21T20:47:25.460Z,44.45
2023-04-21T20:52:46.009Z,44.82
2023-04-21T20:58:06.352Z,44.90
2023-04-21T21:03:27.140Z,45.14
2023-04-21T21:08:47.989Z,45.35
2023-04-21T21:14:08.374Z,45.69
2023-04-21T21:19:29.438Z,45.80
2023-04-21T21:24:50.441Z,45.93
2023-04-21T21:30:11.217Z,46.13
2023-04-21T21:35:32.341Z,46.59
2023-04-21T21:40:52.956Z,46.69
2023-04-21T21:46:13.702Z,46.77
2023-04-21T21:51:34.368Z,47.10
2023-04-21T21:56:55.183Z,46.96
2023-04-21T22:02:15.744Z,47.33
2023-04-21T22:07:37.034Z,47.39
2023-04-21T22:12:57.731Z,47.56
2023-04-21T22:18:18.654Z,47.62
2023-04-21T22:23:39.744Z,47.63
2023-04-21T22:29:00.273Z,47.68
2023-04-21T22:34:20.985Z,47.91
2023-04-21T22:39:41.631Z,47.97
2023-04-21T22:45:03.987Z,48.13
2023-04-21T22:50:25.558Z,48.36
2023-04-21T22:55:45.919Z,48.30
2023-04-21T23:01:06.749Z,48.46
2023-04-21T23:06:28.260Z,48.48
2023-04-21T23:11:48.547Z,48.50
2023-04-21T23:17:09.156Z,48.62
2023-04-21T23:22:29.852Z,48.76
2023-04-21T23:27:50.564Z,48.67
2023-04-21T23:33:11.434Z,49.15
2023-04-21T23:38:31.618Z,49.24
2023-04-21T23:43:52.430Z,49.22
2023-04-21T23:49:12.863Z,49.49
2023-04-21T23:54:33.731Z,49.32
2023-04-21T23:59:54.275Z,49.19
